Time;durP1;ratioP1;P1;durP2;ratioP2;P2;SDS_P1;SDS_P2;PMS_P1;PMS_P2;Temp;Humidity;BMP_temperature;BMP_pressure;BME280_temperature;BME280_humidity;BME280_pressure;Samples;Min_cycle;Max_cycle;Signal;HPM_P1;HPM_P2
2023/10/04 00:01:37;;;;;;;9.77;2.03;;;17.80;99.90;;;;;;5011481;28;20048;-73
2023/10/04 00:04:03;;;;;;;12.40;2.67;;;18.00;99.90;;;;;;4995144;28;20077;-75
2023/10/04 00:06:32;;;;;;;11.18;2.80;;;17.80;99.90;;;;;;5009338;28;20471;-75
2023/10/04 00:08:59;;;;;;;7.75;1.90;;;17.90;99.90;;;;;;5011211;28;20188;-76
2023/10/04 00:11:26;;;;;;;10.05;2.33;;;17.90;99.90;;;;;;4993651;28;20049;-75
2023/10/04 00:13:52;;;;;;;10.20;2.25;;;17.90;99.90;;;;;;5011636;28;20128;-76
2023/10/04 00:16:18;;;;;;;12.80;2.72;;;17.90;99.90;;;;;;4994687;28;20036;-72
2023/10/04 00:18:44;;;;;;;13.18;2.30;;;17.90;99.90;;;;;;4971339;28;20042;-73
2023/10/04 00:21:11;;;;;;;6.50;2.15;;;17.90;99.90;;;;;;5004865;28;20053;-72
2023/10/04 00:23:38;;;;;;;9.45;2.35;;;17.80;99.90;;;;;;4995774;28;20039;-75
2023/10/04 00:26:07;;;;;;;8.32;2.13;;;17.90;99.90;;;;;;5012028;28;20163;-74
2023/10/04 00:28:33;;;;;;;10.18;2.50;;;17.80;99.90;;;;;;5012026;28;20106;-74
2023/10/04 00:30:59;;;;;;;9.52;2.47;;;17.80;99.90;;;;;;4995374;28;20045;-73
2023/10/04 00:33:26;;;;;;;14.80;2.45;;;17.60;99.90;;;;;;4991917;28;20391;-72
2023/10/04 00:35:52;;;;;;;9.60;2.00;;;17.70;99.90;;;;;;5011423;28;20066;-76
2023/10/04 00:38:19;;;;;;;10.35;2.28;;;17.60;99.90;;;;;;5012156;28;20401;-72
2023/10/04 00:40:47;;;;;;;13.48;2.55;;;17.70;99.90;;;;;;5012112;28;20045;-72
2023/10/04 00:43:15;;;;;;;8.10;2.10;;;17.60;99.90;;;;;;4995668;28;20108;-74
2023/10/04 00:45:47;;;;;;;9.15;2.22;;;17.60;99.90;;;;;;4995900;28;20662;-75
2023/10/04 00:48:17;;;;;;;10.10;2.20;;;17.60;99.90;;;;;;5010286;28;20474;-73
2023/10/04 00:50:44;;;;;;;9.10;2.10;;;17.50;99.90;;;;;;5011199;28;20033;-74
2023/10/04 00:53:29;;;;;;;8.88;2.20;;;17.50;99.90;;;;;;5009317;28;20898;-73
2023/10/04 00:55:56;;;;;;;9.20;1.95;;;17.60;99.90;;;;;;4991980;28;20414;-73
2023/10/04 00:58:23;;;;;;;10.48;2.50;;;17.50;99.90;;;;;;5010172;28;20034;-73
2023/10/04 01:00:49;;;;;;;11.20;3.05;;;17.50;99.90;;;;;;4993905;28;20069;-71
2023/10/04 01:03:19;;;;;;;11.32;2.97;;;17.50;99.90;;;;;;5011017;28;20042;-75
2023/10/04 01:05:51;;;;;;;9.05;2.78;;;17.60;99.90;;;;;;5009163;28;20041;-72
2023/10/04 01:08:23;;;;;;;10.55;2.65;;;17.50;99.90;;;;;;4989301;28;20057;-72
2023/10/04 01:10:50;;;;;;;10.10;2.67;;;17.60;99.90;;;;;;5012299;28;20549;-72
2023/10/04 01:13:26;;;;;;;10.73;2.20;;;17.50;99.90;;;;;;5005854;28;20091;-72
2023/10/04 01:15:55;;;;;;;11.27;2.85;;;17.60;99.90;;;;;;5010908;28;20124;-74
2023/10/04 01:18:22;;;;;;;10.30;2.67;;;17.50;99.90;;;;;;4995722;28;20068;-71
2023/10/04 01:20:49;;;;;;;9.80;2.20;;;17.50;99.90;;;;;;4995150;28;20053;-75
2023/10/04 01:23:16;;;;;;;9.85;2.20;;;17.40;99.90;;;;;;5011254;28;20044;-75
2023/10/04 01:25:44;;;;;;;6.13;1.80;;;17.50;99.90;;;;;;4995281;28;20041;-76
2023/10/04 01:28:17;;;;;;;11.15;2.47;;;17.30;99.90;;;;;;4992894;28;20056;-76
2023/10/04 01:30:44;;;;;;;8.80;2.50;;;17.60;99.90;;;;;;5026266;28;20045;-71
2023/10/04 01:33:15;;;;;;;11.85;2.22;;;17.40;99.90;;;;;;4994464;28;20073;-75
2023/10/04 01:35:46;;;;;;;6.60;2.40;;;17.50;99.90;;;;;;4992995;28;20045;-72
2023/10/04 01:38:13;;;;;;;12.07;2.28;;;17.60;99.90;;;;;;4991499;28;20116;-75
2023/10/04 01:40:39;;;;;;;15.05;2.80;;;17.50;99.90;;;;;;4993583;28;20052;-72
2023/10/04 01:43:18;;;;;;;11.23;3.20;;;17.50;99.90;;;;;;4993325;28;20044;-72
2023/10/04 01:45:57;;;;;;;9.40;2.22;;;17.40;99.90;;;;;;5009223;28;20065;-73
2023/10/04 01:48:27;;;;;;;8.20;2.20;;;17.60;99.90;;;;;;5019197;28;20182;-74
2023/10/04 01:50:53;;;;;;;11.85;2.47;;;17.60;99.90;;;;;;5009039;28;20099;-72
2023/10/04 01:53:21;;;;;;;10.15;1.90;;;17.50;99.90;;;;;;5009960;28;20432;-72
2023/10/04 01:55:46;;;;;;;9.48;2.47;;;17.60;99.90;;;;;;4993851;28;20049;-73
2023/10/04 01:58:14;;;;;;;9.23;2.00;;;17.50;99.90;;;;;;4993199;28;20041;-75
2023/10/04 02:00:40;;;;;;;9.45;2.53;;;17.60;99.90;;;;;;5010160;28;20049;-75
2023/10/04 02:03:07;;;;;;;13.65;2.35;;;17.60;99.90;;;;;;4992020;28;20690;-73
2023/10/04 02:05:37;;;;;;;11.32;2.95;;;17.50;99.90;;;;;;5002467;28;20048;-75
2023/10/04 02:08:05;;;;;;;7.50;2.00;;;17.40;99.90;;;;;;5010039;28;20037;-73
2023/10/04 02:10:31;;;;;;;7.47;2.08;;;17.50;99.90;;;;;;4994032;28;20044;-73
2023/10/04 02:12:56;;;;;;;11.75;2.33;;;17.60;99.90;;;;;;5010112;28;20128;-73
2023/10/04 02:15:22;;;;;;;7.53;2.33;;;17.40;99.90;;;;;;5009882;28;20057;-76
2023/10/04 02:17:49;;;;;;;9.30;2.20;;;17.40;99.90;;;;;;5026855;28;20046;-73
2023/10/04 02:20:21;;;;;;;10.40;2.28;;;17.50;99.90;;;;;;4993445;28;20041;-72
2023/10/04 02:22:47;;;;;;;8.88;2.00;;;17.40;99.90;;;;;;5012476;28;20037;-74
2023/10/04 02:25:14;;;;;;;8.15;2.40;;;17.60;99.90;;;;;;5012509;28;20120;-75
2023/10/04 02:27:49;;;;;;;10.13;2.25;;;17.50;99.90;;;;;;5013424;28;20041;-74
2023/10/04 02:30:15;;;;;;;11.68;2.58;;;17.40;99.90;;;;;;4996129;28;20041;-72
2023/10/04 02:32:45;;;;;;;6.43;2.20;;;17.40;99.90;;;;;;4997212;28;20045;-73
2023/10/04 02:35:22;;;;;;;9.07;2.22;;;17.50;99.90;;;;;;5011145;28;20179;-72
2023/10/04 02:37:54;;;;;;;11.73;2.47;;;17.50;99.90;;;;;;5038336;28;20029;-73
2023/10/04 02:40:22;;;;;;;9.48;2.42;;;17.60;99.90;;;;;;4978288;28;20037;-73
2023/10/04 02:42:49;;;;;;;9.00;2.35;;;17.40;99.90;;;;;;4980854;28;20080;-72
2023/10/04 02:45:20;;;;;;;13.68;2.42;;;17.50;99.90;;;;;;5012832;28;20108;-71
2023/10/04 02:47:49;;;;;;;11.07;2.17;;;17.30;99.90;;;;;;5037511;28;20045;-75
2023/10/04 02:50:17;;;;;;;7.80;2.28;;;17.40;99.90;;;;;;5009473;28;20744;-71
2023/10/04 02:52:44;;;;;;;6.22;2.03;;;17.30;99.90;;;;;;5035177;28;20084;-74
2023/10/04 02:55:15;;;;;;;7.25;2.05;;;17.30;99.90;;;;;;5013203;28;20065;-70
2023/10/04 02:57:41;;;;;;;6.82;2.42;;;17.50;99.90;;;;;;4993865;28;20037;-75
2023/10/04 03:00:17;;;;;;;10.38;2.65;;;17.40;99.90;;;;;;5012736;28;20048;-76
2023/10/04 03:02:49;;;;;;;13.00;2.55;;;17.50;99.90;;;;;;5033356;28;20045;-75
2023/10/04 03:05:18;;;;;;;9.57;2.10;;;17.60;99.90;;;;;;5012983;28;20336;-72
2023/10/04 03:07:45;;;;;;;14.13;2.50;;;17.70;99.90;;;;;;5018178;28;20114;-76
2023/10/04 03:10:12;;;;;;;14.07;3.17;;;17.70;99.90;;;;;;5020415;28;20208;-78
2023/10/04 03:12:38;;;;;;;14.98;2.92;;;17.70;99.90;;;;;;5035889;28;20103;-73
2023/10/04 03:15:05;;;;;;;10.60;2.22;;;17.70;99.90;;;;;;4996838;28;20088;-71
2023/10/04 03:17:31;;;;;;;11.48;2.80;;;17.80;99.90;;;;;;4996347;28;20165;-73
2023/10/04 03:19:57;;;;;;;10.82;2.60;;;17.70;99.90;;;;;;4996249;28;20099;-71
2023/10/04 03:22:23;;;;;;;9.23;2.92;;;17.70;99.90;;;;;;5011857;28;20132;-76
2023/10/04 03:24:53;;;;;;;9.98;2.58;;;17.80;99.90;;;;;;5013268;28;20042;-71
2023/10/04 03:27:24;;;;;;;12.88;2.67;;;17.60;99.90;;;;;;4991414;28;20641;-73
2023/10/04 03:29:51;;;;;;;12.70;2.58;;;17.60;99.90;;;;;;5019176;28;20037;-75
2023/10/04 03:32:18;;;;;;;10.45;2.22;;;17.70;99.90;;;;;;4981439;28;20041;-76
2023/10/04 03:34:44;;;;;;;9.13;2.33;;;17.60;99.90;;;;;;5013200;28;20045;-72
2023/10/04 03:37:14;;;;;;;9.43;2.25;;;17.50;99.90;;;;;;4996452;28;20674;-74
2023/10/04 03:39:40;;;;;;;9.55;2.35;;;17.80;99.90;;;;;;5012909;28;20033;-71
2023/10/04 03:42:06;;;;;;;14.45;2.55;;;17.70;99.90;;;;;;5012693;28;20069;-74
2023/10/04 03:44:32;;;;;;;13.85;2.65;;;17.70;99.90;;;;;;4993464;28;20045;-73
2023/10/04 03:46:58;;;;;;;10.15;2.78;;;17.60;99.90;;;;;;5012070;28;20103;-72
2023/10/04 03:49:25;;;;;;;11.25;2.53;;;17.60;99.90;;;;;;5011907;28;20041;-75
2023/10/04 03:51:53;;;;;;;10.02;2.75;;;17.60;99.90;;;;;;4996984;28;20393;-78
2023/10/04 03:54:22;;;;;;;8.48;2.35;;;17.50;99.90;;;;;;5012076;28;20077;-73
2023/10/04 03:56:47;;;;;;;9.43;2.38;;;17.60;99.90;;;;;;5012723;28;20079;-76
2023/10/04 03:59:13;;;;;;;8.35;2.63;;;17.60;99.90;;;;;;5012964;28;20060;-75
2023/10/04 04:01:39;;;;;;;9.50;2.38;;;17.70;99.90;;;;;;5009849;28;20049;-72
2023/10/04 04:04:06;;;;;;;12.57;3.10;;;17.80;99.90;;;;;;4977461;28;20033;-72
2023/10/04 04:06:32;;;;;;;8.88;2.50;;;17.80;99.90;;;;;;5011480;28;20099;-76
2023/10/04 04:09:01;;;;;;;7.40;2.50;;;17.90;99.90;;;;;;5011531;28;20065;-75
2023/10/04 04:11:27;;;;;;;10.68;2.60;;;17.90;99.90;;;;;;4995385;28;20389;-71
2023/10/04 04:13:52;;;;;;;14.40;2.90;;;17.80;99.90;;;;;;5011707;28;20117;-70
2023/10/04 04:16:19;;;;;;;9.18;2.05;;;17.70;99.90;;;;;;5009726;28;20584;-76
2023/10/04 04:18:55;;;;;;;10.90;2.60;;;17.80;99.90;;;;;;4995472;28;20124;-75
2023/10/04 04:21:21;;;;;;;10.57;2.58;;;17.60;99.90;;;;;;5009218;28;20134;-72
2023/10/04 04:23:47;;;;;;;9.43;2.65;;;17.60;99.90;;;;;;5012025;28;20064;-74
2023/10/04 04:26:13;;;;;;;9.43;2.92;;;17.80;99.90;;;;;;5012166;28;20397;-72
2023/10/04 04:28:39;;;;;;;8.27;2.97;;;17.80;99.90;;;;;;4996101;28;20132;-71
2023/10/04 04:31:14;;;;;;;8.65;2.65;;;17.70;99.90;;;;;;5012196;28;20137;-74
2023/10/04 04:33:40;;;;;;;11.15;2.50;;;17.60;99.90;;;;;;4996719;28;20155;-73
2023/10/04 04:36:12;;;;;;;14.50;2.63;;;17.80;99.90;;;;;;5009002;28;20502;-75
2023/10/04 04:38:38;;;;;;;10.93;2.78;;;17.60;99.90;;;;;;5005685;28;20033;-75
2023/10/04 04:41:11;;;;;;;8.98;2.42;;;17.70;99.90;;;;;;4979136;28;20045;-75
2023/10/04 04:43:37;;;;;;;7.00;2.40;;;17.50;99.90;;;;;;4994867;28;20481;-74
2023/10/04 04:46:12;;;;;;;12.73;2.30;;;17.60;99.90;;;;;;5012034;28;20124;-73
2023/10/04 04:48:38;;;;;;;10.75;2.35;;;17.50;99.90;;;;;;5011553;28;20120;-73
2023/10/04 04:51:11;;;;;;;13.20;2.80;;;17.60;99.90;;;;;;5011643;28;20140;-72
2023/10/04 04:53:42;;;;;;;10.65;2.35;;;17.50;99.90;;;;;;5009413;28;20034;-75
2023/10/04 04:56:12;;;;;;;13.32;3.33;;;17.50;99.90;;;;;;5010679;28;20128;-73
2023/10/04 04:58:38;;;;;;;12.23;3.22;;;17.70;99.90;;;;;;5011134;28;20045;-76
2023/10/04 05:01:08;;;;;;;9.20;2.50;;;17.70;99.90;;;;;;4993487;28;20060;-71
2023/10/04 05:03:34;;;;;;;8.88;2.30;;;17.60;99.90;;;;;;4993677;28;20050;-71
2023/10/04 05:06:00;;;;;;;13.05;2.42;;;17.70;99.90;;;;;;5011072;28;20130;-76
2023/10/04 05:08:26;;;;;;;13.63;2.85;;;17.80;99.90;;;;;;5010463;28;20089;-72
2023/10/04 05:10:54;;;;;;;9.90;2.38;;;17.70;99.90;;;;;;4970670;28;20398;-71
2023/10/04 05:13:20;;;;;;;12.65;3.67;;;17.80;99.90;;;;;;5024294;28;20041;-78
2023/10/04 05:15:46;;;;;;;15.50;2.80;;;17.80;99.90;;;;;;5037700;28;20038;-73
2023/10/04 05:18:16;;;;;;;13.38;2.72;;;17.60;99.90;;;;;;4995516;28;20041;-75
2023/10/04 05:20:43;;;;;;;10.73;2.72;;;17.70;99.90;;;;;;4995222;28;20041;-77
2023/10/04 05:23:09;;;;;;;10.10;2.55;;;17.70;99.90;;;;;;4994957;28;20052;-70
2023/10/04 05:25:36;;;;;;;9.43;2.88;;;17.60;99.90;;;;;;5009158;28;20042;-73
2023/10/04 05:28:06;;;;;;;11.68;3.13;;;17.60;99.90;;;;;;4995362;28;20076;-72
2023/10/04 05:30:33;;;;;;;10.65;2.53;;;17.80;99.90;;;;;;4994412;28;20057;-73
2023/10/04 05:32:59;;;;;;;10.98;2.65;;;17.70;99.90;;;;;;5011448;28;20073;-76
2023/10/04 05:35:26;;;;;;;7.53;2.30;;;17.50;99.90;;;;;;5011455;28;20069;-72
2023/10/04 05:37:52;;;;;;;11.48;2.97;;;17.60;99.90;;;;;;4995356;28;20045;-73
2023/10/04 05:40:25;;;;;;;11.98;2.70;;;17.40;99.90;;;;;;5010971;28;20042;-73
2023/10/04 05:42:51;;;;;;;8.07;2.72;;;17.40;99.90;;;;;;5009788;28;20116;-73
2023/10/04 05:45:19;;;;;;;11.73;2.60;;;17.50;99.90;;;;;;5009607;28;20041;-79
2023/10/04 05:47:45;;;;;;;9.07;2.50;;;17.40;99.90;;;;;;5007599;28;20112;-74
2023/10/04 05:50:17;;;;;;;10.52;2.90;;;17.70;99.90;;;;;;5000751;28;20446;-74
2023/10/04 05:52:44;;;;;;;10.75;2.75;;;17.70;99.90;;;;;;5031307;28;20443;-74
2023/10/04 05:55:10;;;;;;;10.07;2.55;;;17.60;99.90;;;;;;5012968;28;20168;-75
2023/10/04 05:57:36;;;;;;;9.90;3.40;;;17.70;99.90;;;;;;5014796;28;20478;-74
2023/10/04 06:00:23;;;;;;;8.35;2.85;;;17.80;99.90;;;;;;5018837;28;20040;-73
2023/10/04 06:02:54;;;;;;;9.60;2.78;;;17.60;99.90;;;;;;4998095;28;20034;-75
2023/10/04 06:05:24;;;;;;;5.88;2.47;;;17.70;99.90;;;;;;4997972;28;20045;-76
2023/10/04 06:07:54;;;;;;;14.57;3.03;;;17.70;99.90;;;;;;5014395;28;20382;-75
2023/10/04 06:10:20;;;;;;;12.75;3.20;;;17.50;99.90;;;;;;5008024;28;20387;-73
2023/10/04 06:12:47;;;;;;;7.95;2.58;;;17.50;99.90;;;;;;5012831;28;20540;-73
2023/10/04 06:15:16;;;;;;;13.68;3.20;;;17.50;99.90;;;;;;5014868;28;20468;-73
2023/10/04 06:17:50;;;;;;;11.02;3.63;;;17.70;99.90;;;;;;5046297;28;20047;-74
2023/10/04 06:22:50;;;;;;;7.43;2.78;;;17.40;99.90;;;;;;5014686;28;20041;-73
2023/10/04 06:25:17;;;;;;;13.35;3.50;;;17.60;99.90;;;;;;5014411;28;20044;-74
2023/10/04 06:27:42;;;;;;;9.70;2.92;;;17.50;99.90;;;;;;5014413;28;20044;-74
2023/10/04 06:30:11;;;;;;;9.30;3.08;;;17.50;99.90;;;;;;5011452;28;20037;-72
2023/10/04 06:32:38;;;;;;;11.02;2.90;;;17.60;99.90;;;;;;5013625;28;20056;-74
2023/10/04 06:35:06;;;;;;;8.80;2.88;;;17.50;99.90;;;;;;4981947;28;20095;-73
2023/10/04 06:37:31;;;;;;;12.85;3.10;;;17.70;99.90;;;;;;5014219;28;20243;-74
2023/10/04 06:39:57;;;;;;;15.48;3.17;;;17.80;99.90;;;;;;5014283;28;20123;-73
2023/10/04 06:42:23;;;;;;;8.82;2.88;;;17.70;99.90;;;;;;4981609;28;20434;-75
2023/10/04 06:44:49;;;;;;;11.52;3.13;;;17.60;99.90;;;;;;5014600;28;20049;-74
2023/10/04 06:47:17;;;;;;;12.05;3.20;;;17.70;99.90;;;;;;5014606;28;20540;-74
2023/10/04 06:49:43;;;;;;;10.48;2.60;;;17.80;99.90;;;;;;5000894;28;20125;-77
2023/10/04 06:52:09;;;;;;;11.63;3.60;;;17.90;99.90;;;;;;5010684;28;20038;-76
2023/10/04 06:54:34;;;;;;;10.68;2.83;;;18.00;99.90;;;;;;4994304;28;20049;-76
2023/10/04 06:57:00;;;;;;;10.70;3.58;;;18.00;99.90;;;;;;4993447;28;20119;-75
2023/10/04 06:59:26;;;;;;;16.30;3.22;;;18.10;99.90;;;;;;4999965;28;20045;-74
2023/10/04 07:01:52;;;;;;;10.13;3.30;;;18.10;99.90;;;;;;4977934;28;20041;-76
2023/10/04 07:04:18;;;;;;;8.85;2.90;;;18.00;99.90;;;;;;4995327;28;20126;-73
2023/10/04 07:06:44;;;;;;;8.63;2.70;;;18.10;99.90;;;;;;5011871;28;20049;-73
2023/10/04 07:09:10;;;;;;;9.55;3.30;;;18.20;99.90;;;;;;4995614;28;20045;-72
2023/10/04 07:11:36;;;;;;;9.45;2.85;;;18.30;99.90;;;;;;5012149;28;20072;-71
2023/10/04 07:14:04;;;;;;;12.77;3.03;;;18.50;99.90;;;;;;5012841;28;20394;-72
2023/10/04 07:16:30;;;;;;;8.77;2.40;;;18.40;99.90;;;;;;5011368;28;20067;-72
2023/10/04 07:18:58;;;;;;;8.85;2.90;;;18.40;99.90;;;;;;5011103;28;20057;-78
2023/10/04 07:21:24;;;;;;;9.88;2.92;;;18.50;99.90;;;;;;5008264;28;20099;-75
2023/10/04 07:23:49;;;;;;;8.15;2.95;;;18.70;99.90;;;;;;5011659;28;20053;-75
2023/10/04 07:26:15;;;;;;;10.00;3.42;;;18.60;99.90;;;;;;5013083;28;20045;-71
2023/10/04 07:28:41;;;;;;;13.05;3.00;;;18.90;99.90;;;;;;5012625;28;20080;-73
2023/10/04 07:31:08;;;;;;;11.23;3.60;;;18.90;99.90;;;;;;5012722;28;20622;-72
2023/10/04 07:33:33;;;;;;;8.95;2.70;;;19.10;99.90;;;;;;5012441;28;20041;-73
2023/10/04 07:35:59;;;;;;;8.20;3.00;;;19.10;99.90;;;;;;4979440;28;20037;-74
2023/10/04 07:38:25;;;;;;;10.23;3.42;;;19.10;99.90;;;;;;5008177;28;20651;-72
2023/10/04 07:40:51;;;;;;;8.57;3.15;;;19.10;99.90;;;;;;4994513;28;20042;-72
2023/10/04 07:43:17;;;;;;;8.35;2.63;;;19.00;99.90;;;;;;5010329;28;20481;-71
2023/10/04 07:45:45;;;;;;;9.73;2.95;;;19.10;99.90;;;;;;5010127;28;20047;-74
2023/10/04 07:48:12;;;;;;;11.32;3.33;;;19.30;99.90;;;;;;5011672;28;20049;-74
2023/10/04 07:50:38;;;;;;;7.90;3.25;;;19.20;99.90;;;;;;5010806;28;20049;-72
2023/10/04 07:53:04;;;;;;;9.40;3.60;;;19.20;99.90;;;;;;4977203;28;20041;-74
2023/10/04 07:55:31;;;;;;;12.50;2.80;;;19.40;99.90;;;;;;5038531;28;20486;-72
2023/10/04 07:57:58;;;;;;;11.63;3.25;;;19.30;99.90;;;;;;5011330;28;20367;-75
2023/10/04 08:00:24;;;;;;;8.75;2.97;;;19.20;99.90;;;;;;5010366;28;20053;-74
2023/10/04 08:02:51;;;;;;;7.93;2.67;;;19.30;99.90;;;;;;5035146;28;20029;-71
2023/10/04 08:05:31;;;;;;;8.80;2.95;;;19.50;99.90;;;;;;4979341;28;20037;-75
2023/10/04 08:08:02;;;;;;;6.68;2.60;;;19.40;99.90;;;;;;5011018;28;20486;-74
2023/10/04 08:10:30;;;;;;;15.10;3.42;;;19.40;99.90;;;;;;5008211;28;20045;-71
2023/10/04 08:12:59;;;;;;;7.55;2.72;;;19.40;99.90;;;;;;5026237;28;20064;-70
2023/10/04 08:15:27;;;;;;;7.35;2.83;;;19.50;99.90;;;;;;5007248;28;20080;-72
2023/10/04 08:17:54;;;;;;;14.98;3.55;;;19.60;99.90;;;;;;5011482;28;20061;-73
2023/10/04 08:20:22;;;;;;;11.90;3.50;;;19.60;99.90;;;;;;5012422;28;20065;-75
2023/10/04 08:22:48;;;;;;;12.65;3.35;;;19.80;99.90;;;;;;4996576;28;20425;-73
2023/10/04 08:25:23;;;;;;;9.27;3.20;;;19.70;99.90;;;;;;5012228;28;20037;-74
2023/10/04 08:27:49;;;;;;;10.45;2.90;;;19.90;99.90;;;;;;5026944;28;20037;-73
2023/10/04 08:30:17;;;;;;;8.73;3.22;;;20.00;99.90;;;;;;5045601;28;20438;-75
2023/10/04 08:32:45;;;;;;;11.05;2.92;;;19.90;99.90;;;;;;4995191;28;20048;-75
2023/10/04 08:35:21;;;;;;;8.07;3.08;;;19.90;99.90;;;;;;5011900;28;20054;-73
2023/10/04 08:37:58;;;;;;;7.00;3.00;;;19.90;99.90;;;;;;5007093;28;20056;-76
2023/10/04 08:40:28;;;;;;;13.07;4.43;;;20.00;99.90;;;;;;5010928;28;20057;-73
2023/10/04 08:42:55;;;;;;;8.27;3.22;;;20.00;99.90;;;;;;4993582;28;20485;-73
2023/10/04 08:45:27;;;;;;;12.35;4.40;;;20.20;99.90;;;;;;5011230;28;20084;-73
2023/10/04 08:47:57;;;;;;;11.65;3.65;;;20.20;99.90;;;;;;5032262;28;20046;-76
2023/10/04 08:50:40;;;;;;;8.90;3.28;;;20.20;99.90;;;;;;4974815;28;20144;-74
2023/10/04 08:53:31;;;;;;;10.35;3.90;;;20.20;99.90;;;;;;4991677;28;20044;-72
2023/10/04 08:56:06;;;;;;;10.40;3.65;;;20.20;99.90;;;;;;5036168;28;20572;-73
2023/10/04 08:58:32;;;;;;;11.82;3.47;;;20.20;99.90;;;;;;5007278;28;20934;-72
2023/10/04 09:01:01;;;;;;;10.85;3.70;;;20.30;99.90;;;;;;4999930;28;20099;-74
2023/10/04 09:03:27;;;;;;;11.98;3.25;;;20.30;99.90;;;;;;5011871;28;20041;-75
2023/10/04 09:05:54;;;;;;;12.82;3.10;;;20.40;99.90;;;;;;5011363;28;20055;-76
2023/10/04 09:08:22;;;;;;;14.32;3.60;;;20.30;99.90;;;;;;5011091;28;20049;-73
2023/10/04 09:10:48;;;;;;;26.83;4.53;;;20.30;99.90;;;;;;4993651;28;20053;-74
2023/10/04 09:13:13;;;;;;;7.53;3.45;;;20.30;99.90;;;;;;5001996;28;20041;-75
2023/10/04 09:15:40;;;;;;;10.85;4.03;;;20.50;99.90;;;;;;5010932;28;20730;-72
2023/10/04 09:18:07;;;;;;;10.52;3.15;;;20.50;99.90;;;;;;5008370;28;20063;-75
2023/10/04 09:20:33;;;;;;;11.75;3.88;;;20.80;99.90;;;;;;5010544;28;20064;-75
2023/10/04 09:23:00;;;;;;;11.25;3.70;;;20.80;99.90;;;;;;5010311;28;20049;-76
2023/10/04 09:25:40;;;;;;;8.73;3.78;;;20.70;99.90;;;;;;4993986;28;20111;-75
2023/10/04 09:28:10;;;;;;;8.35;3.15;;;20.80;99.90;;;;;;5023246;28;20052;-75
2023/10/04 09:30:36;;;;;;;11.40;3.90;;;20.80;99.90;;;;;;5026146;28;20041;-73
2023/10/04 09:33:20;;;;;;;13.77;3.55;;;21.00;99.90;;;;;;5010167;28;20049;-75
2023/10/04 09:35:46;;;;;;;14.00;3.65;;;20.90;99.90;;;;;;5007142;28;20051;-75
2023/10/04 09:38:22;;;;;;;12.98;3.65;;;20.90;99.90;;;;;;4994052;28;20128;-76
2023/10/04 09:40:55;;;;;;;16.23;3.75;;;20.70;99.90;;;;;;4993686;28;20651;-69
2023/10/04 09:43:36;;;;;;;11.70;3.47;;;20.90;99.90;;;;;;5009953;28;20057;-74
2023/10/04 09:46:09;;;;;;;10.77;3.53;;;21.10;99.90;;;;;;4992787;28;20060;-73
2023/10/04 09:48:37;;;;;;;8.30;3.42;;;21.30;99.90;;;;;;5026053;28;20049;-73
2023/10/04 09:51:09;;;;;;;11.02;3.33;;;21.80;99.90;;;;;;4992150;28;20037;-73
2023/10/04 09:53:39;;;;;;;9.75;3.40;;;21.70;99.90;;;;;;5007048;28;20052;-72
2023/10/04 09:56:06;;;;;;;9.88;3.35;;;21.90;99.90;;;;;;4994827;28;20041;-72
2023/10/04 09:58:33;;;;;;;8.65;3.92;;;21.70;99.90;;;;;;5009750;28;20087;-73
2023/10/04 10:01:11;;;;;;;9.63;3.10;;;21.80;99.90;;;;;;5010313;28;20049;-70
2023/10/04 10:03:42;;;;;;;14.27;3.63;;;21.70;99.90;;;;;;5009200;28;20068;-73
2023/10/04 10:06:12;;;;;;;9.90;3.00;;;21.60;99.90;;;;;;5031807;28;20053;-73
2023/10/04 10:08:42;;;;;;;11.27;3.47;;;21.60;99.90;;;;;;5007964;28;20045;-71
2023/10/04 10:11:10;;;;;;;9.27;3.83;;;21.70;99.90;;;;;;4990262;28;20045;-71
2023/10/04 10:13:37;;;;;;;11.80;4.05;;;21.50;99.90;;;;;;5002427;28;20120;-71
2023/10/04 10:16:03;;;;;;;8.75;3.58;;;21.40;99.90;;;;;;5008099;28;20588;-72
2023/10/04 10:18:31;;;;;;;13.85;3.58;;;21.60;99.90;;;;;;4991401;28;20045;-74
2023/10/04 10:20:58;;;;;;;9.32;3.40;;;21.80;99.90;;;;;;5001130;28;20058;-75
2023/10/04 10:23:24;;;;;;;9.40;3.10;;;21.90;99.90;;;;;;4990731;28;20049;-72
2023/10/04 10:26:19;;;;;;;11.25;4.00;;;22.00;99.90;;;;;;4976826;28;20561;-75
2023/10/04 10:28:47;;;;;;;9.13;3.45;;;21.90;99.90;;;;;;5007571;28;20490;-73
2023/10/04 10:31:20;;;;;;;8.32;3.53;;;21.90;99.90;;;;;;4993170;28;20092;-75
2023/10/04 10:33:47;;;;;;;9.07;3.70;;;22.00;99.90;;;;;;5008713;28;20117;-71
2023/10/04 10:36:24;;;;;;;7.43;3.15;;;22.00;99.90;;;;;;5010578;28;20045;-73
2023/10/04 10:38:51;;;;;;;6.20;3.15;;;21.80;99.90;;;;;;4990128;28;20050;-70
2023/10/04 10:41:33;;;;;;;10.55;4.53;;;21.80;99.90;;;;;;5011244;28;20505;-72
2023/10/04 10:44:11;;;;;;;11.05;3.90;;;21.60;99.90;;;;;;5013442;28;20037;-73
2023/10/04 10:47:18;;;;;;;9.70;3.67;;;21.40;99.90;;;;;;5010695;28;20112;-71
2023/10/04 10:49:52;;;;;;;8.90;3.67;;;21.50;99.90;;;;;;5028747;28;20120;-71
2023/10/04 10:52:33;;;;;;;10.95;4.07;;;21.40;99.90;;;;;;5013515;28;20053;-72
2023/10/04 10:55:01;;;;;;;7.28;3.60;;;21.40;99.90;;;;;;5036538;28;20140;-73
2023/10/04 10:57:29;;;;;;;9.60;3.35;;;21.20;99.90;;;;;;5013165;28;20618;-71
2023/10/04 10:59:56;;;;;;;8.00;3.38;;;21.20;99.90;;;;;;5016069;28;20064;-71
2023/10/04 11:02:24;;;;;;;8.90;3.92;;;21.20;99.90;;;;;;5017421;28;20119;-75
2023/10/04 11:04:51;;;;;;;10.88;3.88;;;21.20;99.90;;;;;;5008528;28;20045;-74
2023/10/04 11:07:21;;;;;;;11.00;3.30;;;21.10;99.90;;;;;;4976810;28;20049;-71
2023/10/04 11:09:54;;;;;;;13.00;3.67;;;21.10;99.90;;;;;;5014368;28;20046;-74
2023/10/04 11:12:22;;;;;;;8.13;3.70;;;21.00;99.90;;;;;;5012940;28;20094;-75
2023/10/04 11:14:49;;;;;;;9.90;3.80;;;21.00;99.90;;;;;;5012873;28;20095;-74
2023/10/04 11:17:16;;;;;;;10.48;3.83;;;21.00;99.90;;;;;;5012668;28;20140;-74
2023/10/04 11:19:43;;;;;;;10.18;3.83;;;20.90;99.90;;;;;;5010968;28;20473;-73
2023/10/04 11:22:10;;;;;;;9.55;3.80;;;20.90;99.90;;;;;;4995964;28;20042;-71
2023/10/04 11:24:36;;;;;;;9.48;4.30;;;20.90;99.90;;;;;;5011974;28;20049;-75
2023/10/04 11:27:03;;;;;;;10.43;4.00;;;21.00;99.90;;;;;;4996021;28;20042;-73
2023/10/04 11:29:30;;;;;;;9.60;3.95;;;21.00;99.90;;;;;;5013093;28;20080;-75
2023/10/04 11:31:58;;;;;;;12.38;3.95;;;21.00;99.90;;;;;;4996102;28;20105;-73
2023/10/04 11:34:26;;;;;;;15.07;4.10;;;21.00;99.90;;;;;;5011503;28;20120;-72
2023/10/04 11:37:04;;;;;;;12.68;4.18;;;21.00;99.90;;;;;;4993980;28;20172;-72
2023/10/04 11:39:35;;;;;;;8.50;3.75;;;21.00;99.90;;;;;;5013285;28;20041;-73
2023/10/04 11:42:05;;;;;;;11.60;4.18;;;21.10;99.90;;;;;;4994560;28;20075;-76
2023/10/04 11:44:40;;;;;;;14.73;4.28;;;21.10;99.90;;;;;;4994373;28;20038;-73
2023/10/04 11:47:08;;;;;;;9.63;4.68;;;21.10;99.90;;;;;;5010939;28;20049;-73
2023/10/04 11:49:36;;;;;;;8.52;4.07;;;21.20;99.90;;;;;;5010362;28;20119;-74
2023/10/04 11:52:07;;;;;;;11.40;3.83;;;21.20;99.90;;;;;;5020701;28;20050;-73
2023/10/04 11:54:41;;;;;;;10.40;4.10;;;21.20;99.90;;;;;;5027828;28;20077;-77
2023/10/04 11:57:08;;;;;;;14.27;4.00;;;21.30;99.90;;;;;;4991229;28;20047;-75
2023/10/04 11:59:34;;;;;;;10.80;3.88;;;21.20;99.90;;;;;;4991113;28;20033;-75
2023/10/04 12:02:01;;;;;;;10.00;3.55;;;21.20;99.90;;;;;;5009947;28;20045;-74
2023/10/04 12:04:31;;;;;;;10.27;3.40;;;21.30;99.90;;;;;;5010343;28;20041;-71
2023/10/04 12:06:59;;;;;;;8.00;3.53;;;21.30;99.90;;;;;;5011054;28;20124;-72
2023/10/04 12:09:27;;;;;;;12.68;4.00;;;21.30;99.90;;;;;;4994054;28;20042;-75
2023/10/04 12:11:57;;;;;;;13.82;4.45;;;21.30;99.90;;;;;;5010629;28;20053;-76
2023/10/04 12:14:23;;;;;;;10.68;3.50;;;21.30;99.90;;;;;;5010512;28;20501;-73
2023/10/04 12:16:49;;;;;;;12.32;4.18;;;21.40;99.90;;;;;;5010618;28;20057;-71
2023/10/04 12:19:15;;;;;;;11.32;3.80;;;21.40;99.90;;;;;;5011017;28;20060;-71
2023/10/04 12:21:41;;;;;;;12.75;4.05;;;21.40;99.90;;;;;;5010772;28;20656;-72
2023/10/04 12:24:09;;;;;;;7.00;3.45;;;21.20;99.90;;;;;;4994801;28;20127;-73
2023/10/04 12:26:35;;;;;;;12.55;4.32;;;21.40;99.90;;;;;;5010809;28;20178;-73
2023/10/04 12:29:07;;;;;;;10.05;3.65;;;21.30;99.90;;;;;;5008431;28;20053;-71
2023/10/04 12:31:34;;;;;;;8.55;3.40;;;21.40;99.90;;;;;;5018993;28;20052;-73
2023/10/04 12:34:00;;;;;;;8.77;2.92;;;21.30;99.90;;;;;;4983842;28;20038;-74
2023/10/04 12:36:25;;;;;;;9.25;3.28;;;21.30;99.90;;;;;;4995061;28;20065;-71
2023/10/04 12:38:51;;;;;;;10.10;3.33;;;21.30;99.90;;;;;;5010774;28;20143;-76
2023/10/04 12:41:18;;;;;;;12.00;3.75;;;21.20;99.90;;;;;;5011421;28;20037;-75
2023/10/04 12:43:44;;;;;;;9.27;3.17;;;21.30;99.90;;;;;;5006909;28;20049;-72
2023/10/04 12:46:10;;;;;;;7.30;3.22;;;21.20;99.90;;;;;;4994207;28;20707;-72
2023/10/04 12:48:36;;;;;;;9.38;3.88;;;21.30;99.90;;;;;;5032731;28;20046;-75
2023/10/04 12:51:05;;;;;;;9.70;3.00;;;21.40;99.90;;;;;;5007607;28;20056;-77